Time;durP1;ratioP1;P1;durP2;ratioP2;P2;SDS_P1;SDS_P2;PMS_P1;PMS_P2;Temp;Humidity;BMP_temperature;BMP_pressure;BME280_temperature;BME280_humidity;BME280_pressure;Samples;Min_cycle;Max_cycle;Signal;HPM_P1;HPM_P2
2022/03/26 00:02:01;;;;;;;86.40;48.00;;;;;;;5.56;39.88;99848.55;105749;1278;108198;-69
2022/03/26 00:04:32;;;;;;;85.20;43.80;;;;;;;5.56;39.60;99852.27;105793;1277;99232;-69
2022/03/26 00:07:01;;;;;;;96.20;52.10;;;;;;;5.56;39.69;99848.26;105794;1278;99357;-69
2022/03/26 00:09:29;;;;;;;121.00;62.80;;;;;;;5.53;39.96;99844.83;105793;1277;113359;-69
2022/03/26 00:11:57;;;;;;;119.10;62.20;;;;;;;5.46;39.78;99845.98;105830;1278;99346;-68
2022/03/26 00:14:26;;;;;;;121.30;64.30;;;;;;;5.41;39.88;99843.35;105753;1278;107593;-69
2022/03/26 00:16:54;;;;;;;114.10;61.90;;;;;;;5.36;39.92;99840.90;105742;1278;97860;-68
2022/03/26 00:19:26;;;;;;;115.40;63.00;;;;;;;5.29;40.01;99841.70;105797;1278;97809;-68
2022/03/26 00:21:54;;;;;;;116.00;60.20;;;;;;;5.24;40.22;99842.09;105775;1277;112312;-67
2022/03/26 00:24:22;;;;;;;108.80;56.00;;;;;;;5.21;40.27;99841.66;105796;1277;99260;-68
2022/03/26 00:26:52;;;;;;;111.80;59.30;;;;;;;5.18;40.35;99840.17;105836;1277;108412;-69
2022/03/26 00:29:22;;;;;;;97.40;50.10;;;;;;;5.16;40.28;99840.77;105852;1278;99256;-68
2022/03/26 00:31:52;;;;;;;108.20;56.50;;;;;;;5.16;40.57;99837.80;105818;1278;99109;-69
2022/03/26 00:34:20;;;;;;;107.30;56.00;;;;;;;5.17;40.57;99831.80;105834;1278;113951;-72
2022/03/26 00:36:48;;;;;;;111.70;55.40;;;;;;;5.16;40.82;99831.83;105795;1277;99171;-68
2022/03/26 00:39:17;;;;;;;99.00;50.60;;;;;;;5.16;40.80;99832.88;105815;1277;108398;-67
2022/03/26 00:41:45;;;;;;;89.80;47.30;;;;;;;5.14;40.83;99827.48;105836;1277;99236;-69
2022/03/26 00:44:13;;;;;;;76.60;38.80;;;;;;;5.14;41.07;99827.50;105815;1278;99231;-68
2022/03/26 00:46:41;;;;;;;85.30;45.90;;;;;;;5.15;40.89;99826.75;105810;1277;113381;-66
2022/03/26 00:49:12;;;;;;;72.80;38.20;;;;;;;5.17;41.01;99824.05;105840;1277;99420;-69
2022/03/26 00:51:41;;;;;;;67.10;34.70;;;;;;;5.18;41.02;99822.07;105758;1278;108497;-68
2022/03/26 00:54:12;;;;;;;75.20;41.00;;;;;;;5.20;41.00;99823.05;105801;1278;99956;-68
2022/03/26 00:56:43;;;;;;;77.20;37.50;;;;;;;5.21;40.93;99822.48;105881;1277;99134;-68
2022/03/26 00:59:11;;;;;;;98.30;51.10;;;;;;;5.20;41.11;99825.00;105813;1277;112781;-68
2022/03/26 01:01:39;;;;;;;99.00;50.60;;;;;;;5.19;41.18;99822.75;105792;1277;99265;-68
2022/03/26 01:04:09;;;;;;;107.30;58.40;;;;;;;5.16;41.32;99822.66;105687;1278;108590;-70
2022/03/26 01:06:36;;;;;;;71.60;37.60;;;;;;;5.12;41.30;99814.58;105828;1277;99240;-70
2022/03/26 01:09:04;;;;;;;64.50;31.50;;;;;;;5.11;41.25;99813.35;105903;1278;99194;-68
2022/03/26 01:11:36;;;;;;;52.40;27.20;;;;;;;5.14;41.28;99813.26;105827;1277;113674;-68
2022/03/26 01:14:06;;;;;;;55.40;29.30;;;;;;;5.18;41.59;99812.06;105873;1277;99313;-66
2022/03/26 01:16:35;;;;;;;52.70;27.40;;;;;;;5.23;41.44;99814.16;105799;1277;108458;-67
2022/03/26 01:19:05;;;;;;;47.70;24.40;;;;;;;5.27;41.67;99815.40;105688;1279;99212;-67
2022/03/26 01:21:34;;;;;;;47.20;22.40;;;;;;;5.34;42.26;99813.36;105590;1277;97979;-67
2022/03/26 01:24:02;;;;;;;48.10;24.50;;;;;;;5.42;41.92;99815.35;105589;1278;113374;-68
2022/03/26 01:26:30;;;;;;;47.00;22.00;;;;;;;5.48;41.71;99810.54;105636;1277;98937;-66
2022/03/26 01:28:58;;;;;;;47.60;22.90;;;;;;;5.55;41.68;99811.67;105600;1277;108146;-65
2022/03/26 01:31:26;;;;;;;49.30;22.30;;;;;;;5.59;41.66;99810.79;105487;1279;99420;-67
2022/03/26 01:33:55;;;;;;;53.70;23.50;;;;;;;5.64;41.99;99814.48;106639;1277;97038;-67
2022/03/26 01:36:22;;;;;;;40.40;20.80;;;;;;;5.67;41.94;99812.58;105740;1278;113646;-67
2022/03/26 01:38:50;;;;;;;44.90;21.10;;;;;;;5.72;42.62;99817.14;105767;1277;99259;-67
2022/03/26 01:41:20;;;;;;;44.70;21.40;;;;;;;5.77;42.11;99818.20;105747;1277;106371;-68
2022/03/26 01:43:48;;;;;;;44.20;22.60;;;;;;;5.80;42.47;99819.09;105587;1277;99236;-67
2022/03/26 01:46:19;;;;;;;43.40;21.80;;;;;;;5.85;42.76;99822.79;105711;1277;96664;-68
2022/03/26 01:48:49;;;;;;;50.10;23.10;;;;;;;5.90;42.51;99825.42;105660;1277;113337;-71
2022/03/26 01:51:19;;;;;;;50.50;23.50;;;;;;;5.93;42.57;99827.38;105715;1277;99305;-69
2022/03/26 01:53:53;;;;;;;49.50;22.90;;;;;;;5.95;42.20;99827.98;105607;1277;107768;-69
2022/03/26 01:56:22;;;;;;;45.90;23.60;;;;;;;5.97;42.33;99829.16;105674;1277;99347;-71
2022/03/26 01:58:52;;;;;;;50.10;23.40;;;;;;;5.99;42.77;99829.98;105879;1277;99185;-69
2022/03/26 02:01:20;;;;;;;50.20;23.20;;;;;;;5.99;42.48;99831.05;105877;1277;112538;-68
2022/03/26 02:03:50;;;;;;;43.00;22.20;;;;;;;5.99;42.34;99828.39;105790;1277;99310;-68
2022/03/26 02:06:22;;;;;;;46.40;23.30;;;;;;;6.00;42.38;99824.85;105864;1277;107317;-68
2022/03/26 02:08:52;;;;;;;44.70;22.90;;;;;;;6.01;42.73;99824.27;105914;1277;99294;-66
2022/03/26 02:11:24;;;;;;;46.20;22.40;;;;;;;6.02;42.51;99821.95;105927;1277;99348;-67
2022/03/26 02:13:59;;;;;;;49.30;22.90;;;;;;;6.02;42.52;99824.06;105912;1277;112533;-70
2022/03/26 02:16:26;;;;;;;41.70;19.40;;;;;;;6.03;42.58;99827.18;105903;1277;99321;-65
2022/03/26 02:18:58;;;;;;;45.10;21.90;;;;;;;6.03;42.52;99825.42;105872;1277;108355;-65
2022/03/26 02:21:28;;;;;;;41.90;21.00;;;;;;;6.03;42.48;99828.23;105865;1277;98376;-68
2022/03/26 02:23:56;;;;;;;42.50;20.90;;;;;;;6.04;42.71;99834.02;105896;1277;99329;-67
2022/03/26 02:26:26;;;;;;;49.00;22.60;;;;;;;6.02;43.14;99830.59;105867;1277;113357;-68
2022/03/26 02:28:57;;;;;;;46.60;22.60;;;;;;;6.00;42.65;99833.29;105849;1277;99202;-68
2022/03/26 02:31:27;;;;;;;42.30;22.60;;;;;;;6.01;42.64;99833.95;105889;1277;106735;-69
2022/03/26 02:33:57;;;;;;;45.00;21.80;;;;;;;6.01;42.61;99832.40;105938;1277;99300;-68
2022/03/26 02:36:26;;;;;;;46.80;23.20;;;;;;;6.00;42.86;99830.98;106006;1277;99119;-68
2022/03/26 02:38:54;;;;;;;49.20;23.80;;;;;;;5.99;42.69;99826.98;105894;1277;112578;-67
2022/03/26 02:41:26;;;;;;;50.70;23.00;;;;;;;5.97;42.87;99824.43;105826;1277;97562;-69
2022/03/26 02:43:54;;;;;;;43.90;23.00;;;;;;;5.94;42.77;99821.02;105799;1278;110891;-70
2022/03/26 02:46:23;;;;;;;44.10;22.70;;;;;;;5.93;42.81;99819.28;105773;1279;99243;-70
2022/03/26 02:48:53;;;;;;;53.20;22.80;;;;;;;5.94;42.88;99820.10;105933;1277;96653;-70
2022/03/26 02:51:21;;;;;;;47.70;24.80;;;;;;;5.95;43.27;99820.26;105859;1277;111767;-70
2022/03/26 02:53:50;;;;;;;46.50;23.30;;;;;;;5.95;43.04;99821.69;105974;1277;99230;-69
2022/03/26 02:56:19;;;;;;;48.50;22.40;;;;;;;5.96;43.02;99820.77;105976;1277;107887;-68
2022/03/26 02:58:50;;;;;;;43.50;22.90;;;;;;;5.95;42.96;99823.97;105811;1278;96589;-69
2022/03/26 03:01:20;;;;;;;45.30;22.30;;;;;;;5.94;43.13;99823.98;105842;1277;99261;-67
2022/03/26 03:03:51;;;;;;;48.40;22.60;;;;;;;5.94;43.06;99819.75;105831;1279;113838;-62
2022/03/26 03:06:19;;;;;;;53.80;23.00;;;;;;;5.95;42.96;99817.95;105868;1279;96906;-67
2022/03/26 03:08:47;;;;;;;48.40;24.60;;;;;;;5.94;43.04;99816.78;105884;1279;108446;-68
2022/03/26 03:11:17;;;;;;;46.60;23.00;;;;;;;5.92;42.99;99816.67;105866;1279;99431;-68
2022/03/26 03:13:46;;;;;;;50.50;23.80;;;;;;;5.92;43.10;99814.75;105888;1278;97680;-69
2022/03/26 03:16:14;;;;;;;44.80;22.70;;;;;;;5.92;43.10;99812.64;105870;1277;113351;-67
2022/03/26 03:18:43;;;;;;;48.80;24.10;;;;;;;5.92;43.48;99808.92;105769;1277;99234;-68
2022/03/26 03:21:18;;;;;;;45.00;22.10;;;;;;;5.93;43.20;99809.44;105680;1279;108320;-69
2022/03/26 03:23:54;;;;;;;52.70;25.30;;;;;;;5.97;43.48;99808.73;102891;1309;636277;-65
2022/03/26 03:26:23;;;;;;;52.50;24.70;;;;;;;5.95;43.59;99807.75;105523;1284;94349;-68
2022/03/26 03:28:51;;;;;;;41.10;20.30;;;;;;;5.96;43.32;99804.22;105477;1284;92817;-68
2022/03/26 03:31:19;;;;;;;49.00;24.40;;;;;;;5.96;43.73;99801.55;105540;1284;107604;-69
2022/03/26 03:33:49;;;;;;;44.20;22.00;;;;;;;5.96;43.65;99797.51;105537;1284;93934;-68
2022/03/26 03:36:17;;;;;;;48.90;22.80;;;;;;;5.98;43.61;99798.70;105603;1284;108433;-68
2022/03/26 03:38:49;;;;;;;46.70;23.50;;;;;;;5.98;43.56;99792.87;105571;1278;94280;-71
2022/03/26 03:41:17;;;;;;;50.70;25.60;;;;;;;5.99;43.65;99793.89;106042;1275;92914;-70
2022/03/26 03:43:47;;;;;;;51.90;24.40;;;;;;;5.98;43.85;99795.86;106049;1274;106851;-67
2022/03/26 03:46:17;;;;;;;46.00;23.30;;;;;;;5.97;43.64;99792.00;106095;1274;94381;-68
2022/03/26 03:48:45;;;;;;;55.20;27.30;;;;;;;5.98;43.72;99791.10;106122;1274;107996;-68
2022/03/26 03:51:15;;;;;;;53.90;25.10;;;;;;;5.98;43.91;99791.45;106198;1274;95907;-67
2022/03/26 03:53:44;;;;;;;52.20;25.30;;;;;;;5.97;44.23;99789.73;106185;1274;95179;-69
2022/03/26 03:56:12;;;;;;;44.40;22.80;;;;;;;5.94;44.37;99788.95;106205;1274;109381;-67
2022/03/26 03:58:40;;;;;;;46.50;24.00;;;;;;;5.93;44.14;99787.05;106246;1274;95243;-68
2022/03/26 04:01:10;;;;;;;46.20;24.00;;;;;;;5.92;44.18;99790.27;106090;1274;108513;-68
2022/03/26 04:03:38;;;;;;;55.50;26.90;;;;;;;5.91;44.37;99789.99;106120;1273;95169;-68
2022/03/26 04:06:06;;;;;;;48.10;25.80;;;;;;;5.89;44.06;99784.79;106202;1274;94256;-67
2022/03/26 04:08:34;;;;;;;53.20;23.80;;;;;;;5.89;44.07;99782.67;106086;1274;109416;-67
2022/03/26 04:11:03;;;;;;;52.00;23.90;;;;;;;5.89;44.06;99784.64;106075;1274;95023;-68
2022/03/26 04:13:34;;;;;;;52.50;25.20;;;;;;;5.88;44.12;99788.52;106103;1273;108262;-68
2022/03/26 04:16:05;;;;;;;52.60;25.20;;;;;;;5.87;44.15;99785.93;106072;1274;94327;-66
2022/03/26 04:18:33;;;;;;;52.00;24.30;;;;;;;5.83;44.38;99781.51;106131;1271;94240;-68
2022/03/26 04:21:02;;;;;;;51.30;24.80;;;;;;;5.79;44.19;99779.70;106152;1274;108601;-68
2022/03/26 04:23:30;;;;;;;52.70;26.40;;;;;;;5.78;44.08;99782.42;106125;1274;94983;-67
2022/03/26 04:25:59;;;;;;;51.80;25.40;;;;;;;5.77;44.26;99776.10;106182;1274;108391;-70
2022/03/26 04:28:27;;;;;;;51.90;24.80;;;;;;;5.77;44.12;99778.23;106130;1274;94320;-63
2022/03/26 04:30:55;;;;;;;53.90;26.40;;;;;;;5.76;44.32;99771.21;106021;1274;94235;-62
2022/03/26 04:33:24;;;;;;;53.40;25.50;;;;;;;5.76;44.12;99764.70;106222;1274;109232;-69
2022/03/26 04:35:54;;;;;;;51.00;25.40;;;;;;;5.75;44.32;99761.75;106217;1274;94338;-69
2022/03/26 04:38:24;;;;;;;52.80;25.90;;;;;;;5.75;44.68;99763.01;106130;1274;108245;-67
2022/03/26 04:40:54;;;;;;;55.10;26.70;;;;;;;5.74;44.79;99762.32;106159;1274;96959;-68
2022/03/26 04:43:23;;;;;;;53.10;26.00;;;;;;;5.75;44.58;99758.44;106154;1274;95190;-68
2022/03/26 04:45:54;;;;;;;54.80;26.80;;;;;;;5.77;44.53;99757.82;106061;1274;109258;-67
2022/03/26 04:48:23;;;;;;;58.60;27.50;;;;;;;5.79;44.54;99757.55;106120;1274;94267;-65
2022/03/26 04:50:53;;;;;;;62.40;27.90;;;;;;;5.83;44.47;99755.84;106095;1274;108313;-68
2022/03/26 04:53:21;;;;;;;56.10;26.80;;;;;;;5.85;44.53;99756.06;106065;1274;95500;-68
2022/03/26 04:55:51;;;;;;;58.00;28.30;;;;;;;5.89;44.57;99757.33;106161;1274;95258;-69
2022/03/26 04:58:19;;;;;;;57.20;28.40;;;;;;;5.93;44.90;99759.05;106077;1274;109295;-70
2022/03/26 05:00:47;;;;;;;56.20;29.40;;;;;;;5.97;45.71;99757.35;106123;1274;95602;-69
2022/03/26 05:03:17;;;;;;;54.20;27.10;;;;;;;6.01;44.89;99760.03;106061;1274;108127;-67
2022/03/26 05:05:46;;;;;;;53.80;27.20;;;;;;;6.04;44.92;99758.84;106133;1274;94260;-68
2022/03/26 05:08:16;;;;;;;60.40;28.50;;;;;;;6.07;45.27;99761.16;106073;1274;95170;-67
2022/03/26 05:10:47;;;;;;;50.70;25.60;;;;;;;6.10;45.49;99763.33;106042;1274;108898;-69
2022/03/26 05:13:15;;;;;;;59.60;29.00;;;;;;;6.12;45.44;99760.23;106189;1274;95293;-67
2022/03/26 05:15:45;;;;;;;55.60;28.40;;;;;;;6.14;45.10;99752.77;106085;1274;108384;-67
2022/03/26 05:18:13;;;;;;;56.00;30.00;;;;;;;6.17;45.18;99751.59;106114;1274;94464;-69
2022/03/26 05:20:45;;;;;;;59.00;28.10;;;;;;;6.20;45.22;99751.46;106090;1274;95248;-69
2022/03/26 05:23:13;;;;;;;57.50;28.60;;;;;;;6.21;45.43;99753.70;106170;1274;109960;-68
2022/03/26 05:25:43;;;;;;;51.90;27.70;;;;;;;6.23;45.13;99754.67;106072;1274;95198;-70
2022/03/26 05:28:11;;;;;;;61.60;30.20;;;;;;;6.26;45.36;99755.42;106095;1273;108439;-70
2022/03/26 05:30:40;;;;;;;61.50;29.20;;;;;;;6.28;45.20;99753.59;106039;1274;95251;-70
2022/03/26 05:33:10;;;;;;;53.80;28.60;;;;;;;6.31;45.44;99752.56;106184;1274;95189;-68
2022/03/26 05:35:38;;;;;;;57.90;30.40;;;;;;;6.33;45.46;99751.22;106047;1274;110021;-71
2022/03/26 05:38:09;;;;;;;57.60;30.70;;;;;;;6.37;45.45;99748.61;106029;1274;94198;-70
2022/03/26 05:40:37;;;;;;;53.90;28.90;;;;;;;6.41;45.56;99750.73;106036;1274;108977;-69
2022/03/26 05:43:06;;;;;;;54.60;28.90;;;;;;;6.46;46.00;99749.28;106136;1274;95138;-68
2022/03/26 05:45:34;;;;;;;58.70;31.40;;;;;;;6.50;46.44;99753.14;106151;1274;95207;-68
2022/03/26 05:48:07;;;;;;;58.50;30.10;;;;;;;6.54;45.81;99747.82;106056;1272;109005;-67
2022/03/26 05:50:36;;;;;;;54.20;26.70;;;;;;;6.61;45.94;99748.06;106079;1274;95350;-68
2022/03/26 05:53:04;;;;;;;53.10;29.90;;;;;;;6.65;46.60;99744.67;106035;1273;108308;-66
2022/03/26 05:55:32;;;;;;;57.70;29.90;;;;;;;6.73;46.13;99748.06;106174;1271;95244;-65
2022/03/26 05:58:01;;;;;;;64.60;31.30;;;;;;;6.83;45.96;99748.67;106249;1271;96352;-67
2022/03/26 06:00:29;;;;;;;64.30;32.10;;;;;;;6.90;45.95;99747.28;106243;1269;109212;-68
2022/03/26 06:03:00;;;;;;;55.60;29.30;;;;;;;6.97;45.95;99746.59;106250;1269;94288;-68
2022/03/26 06:05:30;;;;;;;62.50;30.20;;;;;;;7.04;46.37;99744.16;106225;1271;108367;-71
2022/03/26 06:07:58;;;;;;;59.90;31.20;;;;;;;7.11;46.51;99744.71;106250;1271;95172;-67
2022/03/26 06:10:28;;;;;;;58.60;30.70;;;;;;;7.19;45.88;99739.41;106279;1271;95162;-69
2022/03/26 06:12:58;;;;;;;64.10;33.50;;;;;;;7.27;46.31;99739.38;106222;1269;109118;-68
2022/03/26 06:15:28;;;;;;;68.10;33.70;;;;;;;7.35;46.26;99732.47;106339;1271;95178;-68
2022/03/26 06:18:12;;;;;;;59.30;30.40;;;;;;;7.44;45.92;99735.57;106198;1271;108337;-67
2022/03/26 06:20:44;;;;;;;64.00;32.50;;;;;;;7.51;46.16;99732.19;106234;1271;95216;-70
2022/03/26 06:23:13;;;;;;;64.90;32.80;;;;;;;7.59;46.05;99732.50;106186;1271;93820;-67
2022/03/26 06:25:41;;;;;;;62.40;33.60;;;;;;;7.68;46.38;99727.87;106236;1271;109350;-67
2022/03/26 06:28:09;;;;;;;62.00;33.90;;;;;;;7.76;46.16;99728.69;106221;1271;95189;-67
2022/03/26 06:30:39;;;;;;;60.90;29.90;;;;;;;7.84;46.31;99722.77;106199;1271;110005;-68
2022/03/26 06:33:09;;;;;;;62.10;31.20;;;;;;;7.93;46.17;99722.70;106196;1271;95291;-70
2022/03/26 06:35:39;;;;;;;61.00;31.70;;;;;;;8.01;46.35;99718.05;106241;1271;95843;-67
2022/03/26 06:38:09;;;;;;;60.30;30.70;;;;;;;8.11;46.49;99724.80;106282;1271;109332;-67
2022/03/26 06:40:40;;;;;;;56.80;29.30;;;;;;;8.21;46.32;99725.31;106324;1269;95128;-68
2022/03/26 06:43:10;;;;;;;64.70;33.20;;;;;;;8.31;46.46;99724.11;106236;1271;108302;-67
2022/03/26 06:45:40;;;;;;;62.30;31.80;;;;;;;8.41;46.35;99724.64;106266;1270;94238;-69
2022/03/26 06:48:10;;;;;;;62.00;31.70;;;;;;;8.51;46.37;99723.96;106357;1271;94294;-68
2022/03/26 06:50:38;;;;;;;61.90;32.00;;;;;;;8.63;46.48;99725.61;106405;1271;108153;-72
2022/03/26 06:53:06;;;;;;;58.10;29.90;;;;;;;8.74;46.42;99723.59;106318;1271;95360;-67
2022/03/26 06:55:34;;;;;;;61.20;31.10;;;;;;;8.87;46.39;99729.44;106271;1271;108398;-67
2022/03/26 06:58:02;;;;;;;57.40;31.30;;;;;;;9.00;46.38;99727.70;106337;1271;95194;-65
2022/03/26 07:00:34;;;;;;;58.20;30.70;;;;;;;9.11;46.39;99729.37;106324;1270;94241;-67
2022/03/26 07:03:02;;;;;;;63.00;32.50;;;;;;;9.23;46.46;99733.11;106240;1271;109295;-66
2022/03/26 07:05:33;;;;;;;63.30;31.20;;;;;;;9.34;46.51;99730.01;106277;1271;94933;-67
2022/03/26 07:08:03;;;;;;;57.40;31.40;;;;;;;9.46;46.30;99730.58;106247;1271;108380;-67
2022/03/26 07:10:35;;;;;;;58.20;30.80;;;;;;;9.58;46.29;99728.33;106233;1271;94295;-68
2022/03/26 07:13:06;;;;;;;58.80;31.50;;;;;;;9.69;46.22;99727.48;106397;1271;95217;-68
2022/03/26 07:15:34;;;;;;;59.70;32.20;;;;;;;9.80;46.25;99721.69;106336;1271;108692;-69
2022/03/26 07:18:03;;;;;;;56.60;31.00;;;;;;;9.93;46.27;99730.91;106289;1271;95260;-68
2022/03/26 07:20:33;;;;;;;54.50;30.40;;;;;;;10.06;46.23;99727.27;106205;1271;108971;-67
2022/03/26 07:23:02;;;;;;;53.30;28.80;;;;;;;10.21;46.28;99729.75;106231;1271;95348;-67
2022/03/26 07:25:30;;;;;;;63.90;33.20;;;;;;;10.36;46.24;99725.32;106274;1271;94784;-68
2022/03/26 07:27:59;;;;;;;62.10;31.20;;;;;;;10.50;46.17;99722.16;106194;1271;109259;-68
2022/03/26 07:30:27;;;;;;;60.00;32.50;;;;;;;10.66;46.16;99717.83;106266;1271;93601;-70
2022/03/26 07:32:56;;;;;;;57.50;29.30;;;;;;;10.80;46.05;99728.15;106290;1271;107437;-68
2022/03/26 07:35:25;;;;;;;69.10;33.70;;;;;;;10.90;45.73;99731.77;106254;1271;96635;-68
2022/03/26 07:37:53;;;;;;;58.00;32.60;;;;;;;10.99;45.80;99727.30;106290;1271;94252;-69
2022/03/26 07:40:21;;;;;;;59.70;32.20;;;;;;;11.13;45.60;99727.81;106251;1271;110378;-68
2022/03/26 07:42:49;;;;;;;65.60;31.90;;;;;;;11.27;45.54;99732.95;106256;1271;96953;-68
2022/03/26 07:45:17;;;;;;;55.30;31.10;;;;;;;11.42;45.40;99732.02;106250;1271;108350;-69
2022/03/26 07:47:45;;;;;;;60.40;29.30;;;;;;;11.47;45.29;99728.81;106287;1271;94274;-67
2022/03/26 07:50:13;;;;;;;63.90;33.10;;;;;;;11.81;45.21;99727.45;106316;1271;96481;-68
2022/03/26 07:52:42;;;;;;;53.90;27.40;;;;;;;12.06;44.83;99724.59;106210;1271;110634;-68
2022/03/26 07:55:11;;;;;;;58.60;29.40;;;;;;;12.26;45.09;99716.46;106142;1270;96622;-67
2022/03/26 07:57:40;;;;;;;56.20;30.30;;;;;;;12.70;44.82;99710.70;108066;1269;108261;-66
2022/03/26 08:00:09;;;;;;;54.90;28.60;;;;;;;13.64;44.36;99715.14;108099;1270;95226;-67
2022/03/26 08:02:37;;;;;;;56.50;32.80;;;;;;;14.64;44.60;99706.80;108108;1271;94357;-66
2022/03/26 08:05:05;;;;;;;52.70;29.10;;;;;;;15.68;44.43;99705.68;108125;1270;108763;-67
2022/03/26 08:07:33;;;;;;;55.50;28.60;;;;;;;16.47;41.29;99697.14;108128;1269;94813;-68
2022/03/26 08:10:02;;;;;;;53.00;27.10;;;;;;;17.04;43.04;99690.34;107309;1270;106910;-68
2022/03/26 08:12:33;;;;;;;52.60;30.00;;;;;;;17.64;42.25;99688.84;106299;1271;96448;-68
2022/03/26 08:15:03;;;;;;;50.30;31.60;;;;;;;18.18;41.82;99680.66;106226;1271;96556;-70
2022/03/26 08:17:32;;;;;;;47.30;27.70;;;;;;;18.62;40.68;99679.00;106279;1271;109019;-68
2022/03/26 08:20:03;;;;;;;46.10;28.70;;;;;;;18.88;40.73;99673.59;106277;1271;97333;-69
2022/03/26 08:22:31;;;;;;;43.00;26.30;;;;;;;19.17;39.94;99669.32;106339;1271;108308;-68
2022/03/26 08:25:01;;;;;;;48.90;27.40;;;;;;;19.52;40.29;99667.63;106368;1271;94974;-70
2022/03/26 08:27:30;;;;;;;43.90;25.80;;;;;;;19.66;38.96;99662.91;106310;1271;96612;-68
2022/03/26 08:29:59;;;;;;;40.20;22.70;;;;;;;19.89;39.11;99656.23;106258;1271;110638;-68
2022/03/26 08:32:28;;;;;;;40.60;24.40;;;;;;;19.97;38.07;99659.94;106325;1271;95035;-69
2022/03/26 08:34:57;;;;;;;43.10;24.90;;;;;;;19.92;37.59;99654.48;106351;1270;106716;-69
2022/03/26 08:37:26;;;;;;;43.40;26.00;;;;;;;20.08;37.79;99657.55;106264;1270;96511;-68
2022/03/26 08:39:56;;;;;;;49.40;25.10;;;;;;;20.14;38.71;99654.83;106294;1271;97092;-68
2022/03/26 08:42:25;;;;;;;40.50;22.80;;;;;;;20.43;39.27;99651.75;106334;1271;110587;-66
2022/03/26 08:44:53;;;;;;;39.30;23.50;;;;;;;20.87;36.48;99644.29;106381;1269;96858;-67
2022/03/26 08:47:24;;;;;;;45.30;23.70;;;;;;;21.07;37.66;99640.52;106312;1270;108660;-67
2022/03/26 08:49:52;;;;;;;40.50;23.80;;;;;;;21.46;37.90;99641.25;106358;1270;97623;-68
2022/03/26 08:52:21;;;;;;;42.70;23.50;;;;;;;21.78;36.38;99642.08;106436;1269;95716;-70
2022/03/26 08:54:51;;;;;;;34.30;20.60;;;;;;;21.77;35.14;99642.43;106306;1270;110615;-67
2022/03/26 08:57:19;;;;;;;31.10;17.70;;;;;;;21.83;34.94;99649.69;106289;1271;96604;-68
2022/03/26 08:59:49;;;;;;;34.10;20.10;;;;;;;21.64;34.96;99638.89;106292;1271;108596;-67
2022/03/26 09:02:18;;;;;;;36.80;21.70;;;;;;;21.75;35.15;99644.05;106286;1271;96451;-66
2022/03/26 09:04:50;;;;;;;36.70;20.10;;;;;;;21.82;33.92;99637.89;106267;1271;96583;-67
2022/03/26 09:07:20;;;;;;;37.20;21.60;;;;;;;21.54;33.47;99634.55;106323;1269;110458;-67
2022/03/26 09:09:48;;;;;;;38.90;21.80;;;;;;;21.28;33.68;99631.66;106255;1271;94852;-68
2022/03/26 09:12:16;;;;;;;33.60;19.50;;;;;;;21.32;34.75;99631.75;106251;1271;108066;-67
2022/03/26 09:14:44;;;;;;;35.40;20.50;;;;;;;21.51;33.96;99627.48;106344;1270;96599;-68
2022/03/26 09:17:12;;;;;;;37.80;22.60;;;;;;;21.49;33.69;99627.85;106319;1271;96541;-70
2022/03/26 09:19:40;;;;;;;42.30;22.30;;;;;;;21.23;33.29;99619.52;106201;1271;111091;-72
2022/03/26 09:22:11;;;;;;;44.50;23.30;;;;;;;21.05;32.72;99622.87;106342;1271;97030;-69
2022/03/26 09:24:39;;;;;;;41.70;23.10;;;;;;;20.75;32.63;99630.94;106205;1271;107782;-68
2022/03/26 09:27:09;;;;;;;42.30;24.70;;;;;;;20.48;32.57;99624.26;106207;1270;97190;-67
2022/03/26 09:29:39;;;;;;;32.70;18.60;;;;;;;20.35;33.05;99611.04;106251;1271;94195;-67
2022/03/26 09:32:09;;;;;;;40.80;22.90;;;;;;;20.33;32.42;99608.46;106212;1271;110637;-68
2022/03/26 09:34:37;;;;;;;37.10;20.10;;;;;;;20.26;32.11;99607.75;106231;1271;96543;-67
2022/03/26 09:37:06;;;;;;;37.00;20.30;;;;;;;20.16;31.82;99603.61;106196;1269;108537;-68
2022/03/26 09:39:34;;;;;;;38.00;21.40;;;;;;;20.25;32.25;99605.95;106278;1271;96518;-69
2022/03/26 09:42:08;;;;;;;36.60;21.60;;;;;;;20.43;32.59;99608.17;106318;1270;96419;-68
2022/03/26 09:44:40;;;;;;;36.60;21.00;;;;;;;20.48;31.75;99602.84;106390;1271;109943;-68
2022/03/26 09:47:10;;;;;;;40.20;20.20;;;;;;;20.33;31.60;99609.55;106221;1271;96545;-68
2022/03/26 09:49:40;;;;;;;33.90;18.40;;;;;;;20.32;31.51;99606.13;106091;1271;107672;-66
2022/03/26 09:52:08;;;;;;;37.90;18.30;;;;;;;20.08;31.03;99605.34;106272;1270;95011;-67
2022/03/26 09:54:36;;;;;;;34.40;19.80;;;;;;;19.73;31.53;99601.67;106327;1271;96623;-69
2022/03/26 09:57:07;;;;;;;33.90;19.40;;;;;;;19.47;31.59;99587.66;106254;1271;110682;-68
2022/03/26 17:39:06;;;;;;;39.20;19.80;;;;;;;12.41;42.59;99475.70;106253;1271;94314;-68
2022/03/26 17:41:35;;;;;;;35.50;19.50;;;;;;;12.32;42.75;99479.68;106004;1271;109454;-69
2022/03/26 17:44:05;;;;;;;34.80;18.30;;;;;;;12.26;41.66;99482.80;106265;1271;96667;-69
2022/03/26 17:46:33;;;;;;;33.90;17.80;;;;;;;12.23;41.52;99488.89;106249;1271;96687;-69
2022/03/26 17:49:02;;;;;;;36.40;20.10;;;;;;;12.23;41.34;99490.51;106236;1271;110665;-66
2022/03/26 17:51:32;;;;;;;43.90;26.20;;;;;;;12.23;41.48;99492.83;106260;1271;96841;-68
2022/03/26 17:54:00;;;;;;;40.00;24.90;;;;;;;12.20;41.70;99494.09;106329;1271;107665;-69
2022/03/26 17:56:33;;;;;;;42.40;26.10;;;;;;;12.18;41.63;99498.46;106297;1271;96612;-70
2022/03/26 17:59:01;;;;;;;36.10;20.40;;;;;;;12.15;42.02;99507.80;106303;1271;96535;-68
2022/03/26 18:01:30;;;;;;;32.70;18.20;;;;;;;12.09;41.65;99510.36;106339;1271;110614;-68
2022/03/26 18:03:59;;;;;;;35.60;18.50;;;;;;;12.04;41.95;99513.02;106334;1271;96535;-69
2022/03/26 18:06:30;;;;;;;33.50;17.40;;;;;;;12.00;41.96;99518.64;106341;1271;106473;-69
2022/03/26 18:08:58;;;;;;;30.90;16.50;;;;;;;11.98;42.35;99523.73;106123;1270;96631;-69
2022/03/26 18:11:29;;;;;;;26.00;14.10;;;;;;;11.91;42.35;99526.86;106291;1271;96642;-70
2022/03/26 18:13:59;;;;;;;25.80;13.40;;;;;;;11.81;42.27;99533.24;106260;1271;110633;-70
2022/03/26 18:16:32;;;;;;;29.00;13.60;;;;;;;11.74;43.44;99537.67;106228;1271;94961;-70
2022/03/26 18:19:00;;;;;;;25.10;12.30;;;;;;;11.60;43.72;99539.67;106224;1271;108288;-70
2022/03/26 18:21:31;;;;;;;22.70;11.90;;;;;;;11.46;42.86;99544.20;106312;1271;96602;-69
2022/03/26 18:23:59;;;;;;;24.80;12.40;;;;;;;11.37;43.13;99544.13;106298;1271;96539;-70
2022/03/26 18:26:34;;;;;;;24.00;11.80;;;;;;;11.28;42.97;99546.64;106310;1271;110035;-67
2022/03/26 18:29:04;;;;;;;25.30;12.50;;;;;;;11.23;42.90;99548.04;106372;1271;94250;-70
2022/03/26 18:31:32;;;;;;;25.70;13.10;;;;;;;11.18;43.47;99548.95;106316;1271;107780;-70
2022/03/26 18:34:04;;;;;;;25.20;12.70;;;;;;;11.08;43.22;99558.32;106329;1271;96589;-69
2022/03/26 18:36:33;;;;;;;24.50;12.60;;;;;;;11.02;43.43;99556.92;106318;1271;96544;-69
2022/03/26 18:39:03;;;;;;;24.80;12.10;;;;;;;10.97;44.02;99564.70;106218;1271;110109;-69
2022/03/26 18:41:33;;;;;;;25.50;12.80;;;;;;;10.87;43.60;99572.05;106260;1271;95758;-66
2022/03/26 18:44:01;;;;;;;24.20;12.50;;;;;;;10.82;44.18;99575.95;106279;1271;108382;-69
2022/03/26 18:46:29;;;;;;;28.70;15.30;;;;;;;10.75;44.46;99578.20;106327;1271;94241;-68
2022/03/26 18:48:59;;;;;;;31.30;17.30;;;;;;;10.70;44.27;99580.65;106157;1271;94317;-67
2022/03/26 18:51:33;;;;;;;27.50;14.10;;;;;;;10.66;44.61;99588.86;106296;1271;111700;-66
2022/03/26 18:54:00;;;;;;;31.70;17.10;;;;;;;10.61;46.13;99590.77;106261;1270;96546;-68
2022/03/26 18:56:34;;;;;;;30.40;15.60;;;;;;;10.56;45.08;99595.91;106111;1271;108488;-67
2022/03/26 18:59:06;;;;;;;30.00;16.60;;;;;;;10.55;44.75;99604.46;106078;1270;96604;-66
2022/03/26 19:01:34;;;;;;;30.00;15.30;;;;;;;10.52;45.94;99608.55;106187;1270;96655;-70